createdAt,value
2018-12-10T00:01:41.276Z,66.00
2018-12-10T00:04:10.850Z,66.00
2018-12-10T00:06:38.895Z,65.90
2018-12-10T00:09:07.693Z,65.70
2018-12-10T00:11:35.855Z,65.70
2018-12-10T00:14:04.249Z,65.90
2018-12-10T00:16:33.691Z,66.10
2018-12-10T00:19:01.709Z,65.80
2018-12-10T00:21:29.860Z,65.70
2018-12-10T00:23:59.878Z,65.70
2018-12-10T00:26:28.918Z,65.80
2018-12-10T00:28:57.214Z,65.80
2018-12-10T00:31:26.633Z,65.50
2018-12-10T00:33:55.542Z,65.40
2018-12-10T00:36:28.102Z,65.20
2018-12-10T00:38:56.759Z,65.20
2018-12-10T00:41:24.234Z,65.20
2018-12-10T00:43:52.333Z,65.10
2018-12-10T00:46:22.629Z,65.00
2018-12-10T00:48:51.972Z,65.00
2018-12-10T00:51:22.223Z,64.80
2018-12-10T00:53:49.707Z,64.80
2018-12-10T00:56:19.544Z,64.80
2018-12-10T00:58:48.434Z,64.70
2018-12-10T01:01:16.117Z,64.70
2018-12-10T01:03:46.355Z,64.70
2018-12-10T01:06:16.500Z,64.90
2018-12-10T01:08:45.639Z,64.70
2018-12-10T01:11:13.405Z,64.60
2018-12-10T01:13:44.530Z,64.40
2018-12-10T01:16:14.299Z,64.40
2018-12-10T01:18:43.326Z,64.30
2018-12-10T01:21:13.061Z,64.50
2018-12-10T01:23:42.253Z,64.30
2018-12-10T01:26:11.341Z,64.30
2018-12-10T01:28:39.729Z,64.10
2018-12-10T01:31:09.737Z,64.20
2018-12-10T01:33:37.293Z,64.20
2018-12-10T01:36:06.194Z,64.20
2018-12-10T01:38:35.038Z,64.20
2018-12-10T01:41:03.395Z,63.90
2018-12-10T01:43:33.741Z,64.20
2018-12-10T01:46:02.051Z,64.20
2018-12-10T01:48:31.098Z,64.40
2018-12-10T01:51:00.770Z,64.20
2018-12-10T01:53:28.868Z,64.60
2018-12-10T01:56:01.298Z,64.60
2018-12-10T01:58:30.485Z,64.50
2018-12-10T02:00:59.490Z,64.60
2018-12-10T02:03:27.483Z,64.60
2018-12-10T02:05:55.694Z,64.50
2018-12-10T02:08:26.338Z,64.60
2018-12-10T02:10:55.532Z,64.50
2018-12-10T02:13:25.226Z,64.40
2018-12-10T02:15:53.546Z,64.60
2018-12-10T02:18:21.999Z,64.40
2018-12-10T02:20:49.775Z,64.70
2018-12-10T02:23:19.028Z,64.80
2018-12-10T02:25:47.285Z,64.90
2018-12-10T02:28:19.368Z,64.90
2018-12-10T02:30:49.107Z,64.90
2018-12-10T02:33:18.202Z,64.90
2018-12-10T02:35:46.923Z,65.00
2018-12-10T02:38:17.012Z,65.00
2018-12-10T02:40:46.993Z,65.10
2018-12-10T02:43:16.104Z,65.10
2018-12-10T02:45:43.609Z,65.20
2018-12-10T02:48:11.626Z,65.10
2018-12-10T02:50:40.415Z,65.20
2018-12-10T02:53:08.443Z,65.30
2018-12-10T02:55:37.274Z,65.40
2018-12-10T02:58:07.213Z,65.40
2018-12-10T03:00:37.760Z,65.30
2018-12-10T03:03:05.952Z,65.20
2018-12-10T03:05:34.790Z,65.30
2018-12-10T03:08:02.315Z,65.50
2018-12-10T03:10:32.392Z,65.50
2018-12-10T03:13:00.418Z,65.50
2018-12-10T03:15:31.989Z,65.30
2018-12-10T03:18:00.683Z,65.20
2018-12-10T03:20:30.169Z,65.30
2018-12-10T03:22:58.078Z,65.20
2018-12-10T03:25:26.869Z,65.20
2018-12-10T03:27:54.377Z,65.10
2018-12-10T03:30:21.867Z,65.30
2018-12-10T03:32:52.314Z,65.30
2018-12-10T03:35:20.176Z,65.20
2018-12-10T03:37:49.619Z,65.40
2018-12-10T03:40:17.900Z,65.40
2018-12-10T03:42:47.315Z,65.30
2018-12-10T03:45:15.316Z,65.20
2018-12-10T03:47:43.663Z,65.30
2018-12-10T03:50:11.793Z,65.40
2018-12-10T03:52:40.833Z,65.40
2018-12-10T03:55:09.475Z,65.30
2018-12-10T03:57:38.536Z,65.30
2018-12-10T04:00:06.015Z,65.50
2018-12-10T04:02:34.011Z,65.30
2018-12-10T04:05:03.462Z,65.20
2018-12-10T04:07:32.024Z,65.40
2018-12-10T04:10:00.367Z,65.50
2018-12-10T04:12:29.033Z,65.30
2018-12-10T04:14:56.813Z,65.30
2018-12-10T04:17:25.012Z,65.40
2018-12-10T04:19:52.790Z,65.30
2018-12-10T04:22:22.730Z,65.20
2018-12-10T04:24:51.583Z,65.40
2018-12-10T04:27:20.360Z,65.20
2018-12-10T04:29:49.930Z,65.30
2018-12-10T04:32:20.121Z,65.20
2018-12-10T04:34:48.439Z,65.50
2018-12-10T04:37:17.338Z,65.20
2018-12-10T04:39:45.506Z,65.10
2018-12-10T04:42:14.608Z,65.10
2018-12-10T04:44:43.855Z,65.10
2018-12-10T04:47:11.326Z,65.30
2018-12-10T04:49:40.533Z,65.10
2018-12-10T04:52:10.187Z,65.10
2018-12-10T04:54:38.700Z,65.00
2018-12-10T04:57:07.030Z,65.20
2018-12-10T04:59:36.088Z,64.90
2018-12-10T05:02:09.625Z,65.00
2018-12-10T05:04:38.862Z,65.20
2018-12-10T05:07:12.574Z,65.30
2018-12-10T05:09:41.404Z,65.40
2018-12-10T05:12:09.920Z,64.50
2018-12-10T05:14:38.261Z,65.00
2018-12-10T05:17:09.534Z,65.40
2018-12-10T05:19:39.457Z,65.10
2018-12-10T05:22:07.559Z,65.20
2018-12-10T05:24:35.523Z,65.10
2018-12-10T05:27:09.147Z,65.10
2018-12-10T05:29:37.449Z,65.10
2018-12-10T05:32:05.837Z,65.40
2018-12-10T05:34:34.999Z,65.40
2018-12-10T05:37:04.453Z,65.10
2018-12-10T05:39:32.547Z,64.90
2018-12-10T05:42:00.617Z,65.00
2018-12-10T05:44:28.360Z,64.90
2018-12-10T05:46:56.866Z,64.70
2018-12-10T05:49:25.377Z,65.00
2018-12-10T05:51:52.869Z,65.10
2018-12-10T05:54:22.206Z,64.30
2018-12-10T05:56:51.873Z,64.20
2018-12-10T05:59:21.780Z,64.30
2018-12-10T06:01:50.234Z,64.20
2018-12-10T06:04:19.245Z,64.10
2018-12-10T06:06:47.017Z,64.10
2018-12-10T06:09:16.636Z,64.30
2018-12-10T06:11:44.173Z,64.30
2018-12-10T06:14:13.738Z,64.20
2018-12-10T06:16:41.785Z,64.30
2018-12-10T06:19:09.786Z,64.20
2018-12-10T06:21:37.616Z,64.30
2018-12-10T06:24:07.052Z,64.30
2018-12-10T06:26:34.956Z,64.30
2018-12-10T06:29:03.436Z,64.40
2018-12-10T06:31:33.124Z,64.50
2018-12-10T06:34:01.362Z,64.50
2018-12-10T06:36:29.609Z,64.60
2018-12-10T06:38:58.917Z,64.40
2018-12-10T06:41:26.449Z,64.70
2018-12-10T06:43:53.934Z,64.60
2018-12-10T06:46:24.131Z,64.50
2018-12-10T06:48:53.267Z,64.60
2018-12-10T06:51:21.812Z,64.30
2018-12-10T06:53:49.285Z,64.20
2018-12-10T06:56:17.540Z,64.30
2018-12-10T06:58:46.217Z,64.20
2018-12-10T07:01:14.807Z,64.10
2018-12-10T07:03:44.996Z,64.10
2018-12-10T07:06:13.696Z,64.10
2018-12-10T07:08:41.811Z,64.00
2018-12-10T07:11:10.885Z,64.00
2018-12-10T07:13:39.028Z,64.00
2018-12-10T07:16:06.529Z,64.20
2018-12-10T07:18:34.126Z,63.70
2018-12-10T07:21:01.619Z,63.80
2018-12-10T07:23:30.476Z,63.90
2018-12-10T07:25:57.983Z,64.00
2018-12-10T07:28:26.974Z,64.20
2018-12-10T07:30:55.646Z,63.90
2018-12-10T07:33:25.070Z,63.60
2018-12-10T07:35:53.395Z,63.60
2018-12-10T07:38:24.158Z,63.40
2018-12-10T07:40:54.762Z,63.00
2018-12-10T07:43:22.247Z,62.80
2018-12-10T07:45:51.379Z,62.90
2018-12-10T07:48:20.265Z,62.50
2018-12-10T07:50:48.012Z,62.60
2018-12-10T07:53:17.386Z,62.90
2018-12-10T07:55:46.318Z,62.90
2018-12-10T07:58:15.133Z,63.10
2018-12-10T08:00:43.629Z,68.10
2018-12-10T08:03:12.038Z,67.70
2018-12-10T08:05:39.822Z,64.50
2018-12-10T08:08:09.337Z,63.50
2018-12-10T08:10:37.199Z,63.20
2018-12-10T08:13:07.203Z,63.00
2018-12-10T08:15:34.969Z,62.90
2018-12-10T08:18:05.411Z,63.00
2018-12-10T08:20:33.658Z,63.50
2018-12-10T08:23:03.908Z,63.30
2018-12-10T08:25:31.400Z,63.40
2018-12-10T08:28:01.122Z,63.80
2018-12-10T08:30:30.259Z,63.70
2018-12-10T08:32:59.873Z,63.80
2018-12-10T08:35:28.578Z,64.00
2018-12-10T08:37:56.283Z,64.10
2018-12-10T08:40:26.008Z,64.10
2018-12-10T08:42:53.506Z,64.10
2018-12-10T08:45:21.371Z,64.20
2018-12-10T08:47:50.725Z,64.20
2018-12-10T08:50:20.327Z,64.10
2018-12-10T08:52:49.391Z,64.40
2018-12-10T08:55:18.702Z,64.40
2018-12-10T08:57:46.256Z,64.40
2018-12-10T09:00:15.276Z,64.50
2018-12-10T09:02:44.934Z,64.60
2018-12-10T09:05:13.672Z,64.40
2018-12-10T09:07:42.262Z,64.30
2018-12-10T09:10:11.172Z,64.40
2018-12-10T09:12:46.975Z,64.70
2018-12-10T09:15:10.549Z,64.80
2018-12-10T09:17:39.078Z,64.90
2018-12-10T09:20:08.924Z,64.80
2018-12-10T09:22:37.291Z,64.70
2018-12-10T09:25:06.872Z,64.70
2018-12-10T09:27:36.467Z,64.70
2018-12-10T09:30:06.275Z,65.10
2018-12-10T09:32:34.673Z,65.10
2018-12-10T09:35:02.794Z,64.50
2018-12-10T09:37:30.717Z,64.40
2018-12-10T09:39:58.231Z,63.00
2018-12-10T09:42:27.556Z,62.70
2018-12-10T09:44:55.320Z,61.80
2018-12-10T09:47:23.510Z,60.00
2018-12-10T09:49:51.005Z,58.80
2018-12-10T09:52:18.497Z,57.20
2018-12-10T09:54:47.029Z,56.70
2018-12-10T09:57:15.449Z,56.10
2018-12-10T09:59:44.423Z,55.50
2018-12-10T10:02:13.795Z,55.20
2018-12-10T10:04:42.240Z,53.50
2018-12-10T10:07:11.966Z,52.60
2018-12-10T10:09:40.179Z,51.90
2018-12-10T10:12:08.427Z,51.60
2018-12-10T10:14:37.262Z,49.60
2018-12-10T10:17:05.976Z,48.70
2018-12-10T10:19:33.753Z,49.10
2018-12-10T10:22:02.090Z,49.30
2018-12-10T10:24:30.358Z,49.30
2018-12-10T10:26:59.578Z,49.70
2018-12-10T10:29:27.974Z,50.10
2018-12-10T10:31:57.603Z,50.50
2018-12-10T10:34:26.936Z,51.30
2018-12-10T10:36:56.289Z,51.80
2018-12-10T10:39:24.643Z,52.40
2018-12-10T10:41:52.660Z,53.00
2018-12-10T10:44:22.991Z,53.50
2018-12-10T10:46:52.838Z,54.10
2018-12-10T10:49:20.342Z,54.50
2018-12-10T10:51:48.657Z,54.70
2018-12-10T10:54:16.120Z,55.20
2018-12-10T10:56:45.447Z,55.40
2018-12-10T10:59:15.087Z,55.90
2018-12-10T11:01:48.928Z,57.20
2018-12-10T11:04:19.143Z,57.70
2018-12-10T11:06:47.576Z,57.90
2018-12-10T11:09:18.256Z,58.40
2018-12-10T11:11:46.720Z,58.80
2018-12-10T11:14:16.839Z,59.10
2018-12-10T11:16:46.224Z,59.50
2018-12-10T11:19:16.602Z,59.40
2018-12-10T11:21:46.250Z,59.60
2018-12-10T11:24:14.657Z,59.70
2018-12-10T11:26:42.674Z,59.70
2018-12-10T11:29:12.372Z,60.00
2018-12-10T11:31:43.087Z,60.20
2018-12-10T11:34:13.313Z,60.00
2018-12-10T11:36:42.131Z,60.10
2018-12-10T11:39:10.675Z,60.20
2018-12-10T11:41:40.825Z,60.40
2018-12-10T11:44:09.933Z,60.70
2018-12-10T11:46:39.175Z,60.90
2018-12-10T11:49:09.111Z,61.20
2018-12-10T11:51:37.966Z,61.70
2018-12-10T11:54:06.998Z,62.40
2018-12-10T11:56:35.747Z,62.60
2018-12-10T11:59:04.364Z,63.20
2018-12-10T12:01:32.620Z,63.60
2018-12-10T12:04:02.032Z,64.00
2018-12-10T12:06:29.540Z,64.10
2018-12-10T12:08:57.719Z,64.20
2018-12-10T12:11:26.819Z,64.70
2018-12-10T12:13:55.654Z,64.50
2018-12-10T12:16:23.662Z,65.00
2018-12-10T12:18:51.931Z,65.00
2018-12-10T12:21:22.458Z,64.70
2018-12-10T12:23:51.064Z,64.60
2018-12-10T12:26:18.534Z,64.50
2018-12-10T12:28:46.015Z,64.40
2018-12-10T12:31:13.495Z,64.40
2018-12-10T12:33:41.010Z,64.10
2018-12-10T12:36:08.484Z,63.60
2018-12-10T12:38:35.970Z,63.50
2018-12-10T12:41:03.488Z,63.30
2018-12-10T12:43:31.004Z,63.30
2018-12-10T12:45:58.498Z,63.40
2018-12-10T12:48:25.996Z,62.70
2018-12-10T12:50:53.458Z,62.70
2018-12-10T12:53:21.018Z,62.40
2018-12-10T12:55:48.519Z,62.20
2018-12-10T12:58:16.002Z,62.40
2018-12-10T13:00:43.477Z,62.30
2018-12-10T13:03:10.961Z,62.40
2018-12-10T13:05:38.437Z,62.00
2018-12-10T13:08:05.950Z,62.10
2018-12-10T13:10:33.524Z,61.60
2018-12-10T13:13:01.012Z,61.00
2018-12-10T13:15:28.484Z,61.10
2018-12-10T13:17:55.963Z,61.10
2018-12-10T13:20:23.450Z,60.70
2018-12-10T13:22:50.919Z,60.50
2018-12-10T13:25:19.444Z,60.20
2018-12-10T13:27:46.954Z,59.90
2018-12-10T13:30:14.638Z,60.30
2018-12-10T13:32:42.132Z,59.90
2018-12-10T13:35:09.686Z,60.00
2018-12-10T13:37:37.161Z,60.40
2018-12-10T13:40:06.226Z,60.60
2018-12-10T13:42:33.754Z,60.70
2018-12-10T13:45:01.271Z,60.80
2018-12-10T13:47:28.810Z,60.50
2018-12-10T13:49:56.324Z,60.60
2018-12-10T13:52:23.830Z,61.00
2018-12-10T13:54:51.416Z,61.00
2018-12-10T13:57:18.902Z,61.70
2018-12-10T13:59:46.385Z,62.10
2018-12-10T14:02:13.850Z,62.30
2018-12-10T14:04:43.295Z,62.50
2018-12-10T14:07:10.818Z,62.00
2018-12-10T14:09:38.350Z,62.10
2018-12-10T14:12:05.886Z,62.20
2018-12-10T14:14:33.373Z,62.00
2018-12-10T14:17:00.861Z,62.00
2018-12-10T14:19:28.351Z,62.30
2018-12-10T14:21:55.872Z,62.40
2018-12-10T14:24:23.350Z,62.80
2018-12-10T14:26:50.818Z,63.40
2018-12-10T14:29:18.332Z,63.90
2018-12-10T14:31:45.794Z,64.50
2018-12-10T14:34:30.159Z,64.60
2018-12-10T14:36:57.625Z,65.70
2018-12-10T14:39:25.107Z,65.00
2018-12-10T14:41:52.590Z,65.20
2018-12-10T14:44:20.075Z,65.50
2018-12-10T14:46:47.544Z,65.80
2018-12-10T14:49:16.199Z,65.90
2018-12-10T14:51:43.696Z,66.10
2018-12-10T14:54:11.234Z,66.20
2018-12-10T14:56:38.673Z,66.30
2018-12-10T14:59:06.163Z,66.40
2018-12-10T15:01:33.709Z,66.60
2018-12-10T15:04:01.208Z,66.60
2018-12-10T15:06:28.695Z,66.40
2018-12-10T15:08:56.141Z,66.20
2018-12-10T15:11:23.720Z,66.20
2018-12-10T15:13:51.165Z,66.00
2018-12-10T15:16:18.665Z,65.80
2018-12-10T15:18:47.493Z,65.50
2018-12-10T15:21:15.070Z,65.20
2018-12-10T15:23:42.542Z,65.20
2018-12-10T15:26:12.477Z,65.10
2018-12-10T15:28:39.997Z,64.90
2018-12-10T15:31:07.527Z,64.70
2018-12-10T15:33:34.997Z,64.60
2018-12-10T15:36:02.663Z,64.40
2018-12-10T15:38:30.143Z,64.50
2018-12-10T15:40:57.654Z,64.40
2018-12-10T15:43:25.124Z,64.10
2018-12-10T15:45:52.722Z,63.90
2018-12-10T15:48:20.203Z,63.70
2018-12-10T15:50:47.694Z,63.40
2018-12-10T15:53:15.183Z,63.80
2018-12-10T15:55:42.683Z,63.60
2018-12-10T15:58:10.197Z,63.70
2018-12-10T16:00:37.686Z,64.00
2018-12-10T16:03:05.259Z,63.70
2018-12-10T16:05:32.745Z,63.80
2018-12-10T16:08:00.234Z,64.00
2018-12-10T16:10:27.721Z,63.90
2018-12-10T16:12:56.407Z,63.80
2018-12-10T16:15:23.907Z,63.90
2018-12-10T16:17:51.388Z,63.90
2018-12-10T16:20:18.909Z,63.70
2018-12-10T16:22:46.441Z,63.50
2018-12-10T16:25:14.865Z,64.70
2018-12-10T16:27:44.521Z,63.70
2018-12-10T16:30:12.481Z,63.70
2018-12-10T16:32:40.038Z,63.50
2018-12-10T16:35:07.568Z,63.60
2018-12-10T16:37:35.046Z,63.50
2018-12-10T16:40:02.532Z,63.60
2018-12-10T16:42:29.998Z,63.30
2018-12-10T16:44:57.482Z,63.70
2018-12-10T16:47:24.987Z,63.40
2018-12-10T16:49:52.459Z,63.50
2018-12-10T16:52:19.989Z,63.70
2018-12-10T16:54:47.466Z,64.00
2018-12-10T16:57:14.949Z,64.30
2018-12-10T16:59:42.478Z,64.60
2018-12-10T17:02:10.815Z,64.40
2018-12-10T17:04:38.425Z,64.50
2018-12-10T17:07:05.987Z,64.80
2018-12-10T17:09:33.726Z,64.20
2018-12-10T17:12:01.216Z,64.10
2018-12-10T17:14:28.689Z,64.10
2018-12-10T17:16:56.198Z,63.90
2018-12-10T17:19:23.677Z,64.00
2018-12-10T17:21:51.167Z,63.80
2018-12-10T17:24:18.649Z,63.90
2018-12-10T17:26:46.131Z,64.00
2018-12-10T17:29:13.645Z,63.80
2018-12-10T17:31:41.129Z,63.80
2018-12-10T17:34:08.668Z,63.70
2018-12-10T17:36:36.670Z,63.60
2018-12-10T17:39:07.284Z,63.70
2018-12-10T17:41:35.129Z,63.90
2018-12-10T17:44:02.684Z,64.80
2018-12-10T17:46:30.171Z,64.50
2018-12-10T17:48:57.765Z,64.80
2018-12-10T17:51:25.328Z,65.00
2018-12-10T17:53:53.221Z,65.20
2018-12-10T17:56:20.714Z,65.20
2018-12-10T17:58:48.220Z,65.10
2018-12-10T18:01:15.731Z,65.10
2018-12-10T18:03:43.201Z,64.90
2018-12-10T18:06:10.708Z,65.00
2018-12-10T18:08:38.223Z,64.90
2018-12-10T18:11:05.723Z,65.20
2018-12-10T18:13:33.206Z,65.00
2018-12-10T18:16:00.729Z,65.40
2018-12-10T18:18:28.243Z,65.30
2018-12-10T18:20:55.745Z,65.20
2018-12-10T18:23:23.236Z,66.10
2018-12-10T18:25:50.723Z,65.30
2018-12-10T18:28:18.228Z,65.20
2018-12-10T18:30:45.782Z,65.00
2018-12-10T18:33:13.280Z,65.20
2018-12-10T18:35:40.831Z,65.10
2018-12-10T18:38:08.329Z,66.00
2018-12-10T18:40:35.809Z,65.40
2018-12-10T18:43:03.311Z,65.40
2018-12-10T18:45:30.800Z,65.50
2018-12-10T18:47:58.301Z,65.60
2018-12-10T18:50:25.786Z,65.50
2018-12-10T18:52:53.276Z,65.60
2018-12-10T18:55:20.753Z,65.80
2018-12-10T18:57:48.259Z,65.80
2018-12-10T19:00:15.803Z,65.60
2018-12-10T19:02:43.281Z,65.60
2018-12-10T19:05:10.783Z,65.90
2018-12-10T19:07:38.264Z,65.70
2018-12-10T19:10:06.776Z,65.50
2018-12-10T19:12:34.746Z,65.60
2018-12-10T19:15:02.669Z,65.70
2018-12-10T19:17:30.171Z,65.90
2018-12-10T19:19:57.665Z,65.80
2018-12-10T19:22:25.291Z,65.80
2018-12-10T19:24:52.848Z,66.00
2018-12-10T19:27:20.356Z,65.70
2018-12-10T19:29:47.916Z,66.20
2018-12-10T19:32:15.430Z,66.20
2018-12-10T19:34:42.910Z,66.20
2018-12-10T19:37:10.407Z,66.10
2018-12-10T19:39:37.881Z,66.10
2018-12-10T19:42:05.367Z,66.00
2018-12-10T19:44:32.860Z,66.10
2018-12-10T19:47:00.339Z,66.20
2018-12-10T19:49:27.841Z,66.20
2018-12-10T19:51:55.409Z,66.00
2018-12-10T19:54:22.888Z,66.10
2018-12-10T19:56:50.390Z,66.20
2018-12-10T19:59:18.001Z,66.10
2018-12-10T20:01:45.497Z,66.30
2018-12-10T20:04:12.987Z,66.40
2018-12-10T20:06:46.340Z,66.40
2018-12-10T20:09:13.798Z,66.60
2018-12-10T20:11:41.298Z,66.70
2018-12-10T20:14:08.770Z,66.80
2018-12-10T20:16:36.279Z,66.80
2018-12-10T20:19:03.792Z,66.70
2018-12-10T20:21:31.291Z,66.50
2018-12-10T20:23:58.844Z,66.40
2018-12-10T20:26:26.332Z,66.70
2018-12-10T20:28:53.891Z,66.70
2018-12-10T20:31:22.375Z,66.50
2018-12-10T20:33:49.963Z,66.70
2018-12-10T20:36:17.492Z,66.60
2018-12-10T20:38:45.086Z,66.50
2018-12-10T20:41:12.578Z,66.60
2018-12-10T20:43:40.050Z,66.70
2018-12-10T20:46:07.541Z,66.90
2018-12-10T20:48:35.062Z,67.20
2018-12-10T20:51:02.539Z,67.10
2018-12-10T20:53:30.032Z,66.90
2018-12-10T20:55:57.523Z,66.70
2018-12-10T21:00:57.846Z,66.80
2018-12-10T21:03:25.345Z,67.00
2018-12-10T21:06:02.469Z,67.00
2018-12-10T21:08:29.964Z,67.60
2018-12-10T21:10:57.427Z,67.30
2018-12-10T21:13:24.952Z,67.20
2018-12-10T21:15:52.423Z,67.10
2018-12-10T21:18:19.999Z,67.20
2018-12-10T21:20:47.515Z,67.00
2018-12-10T21:23:15.138Z,66.90
2018-12-10T21:25:42.626Z,67.10
2018-12-10T21:28:10.155Z,66.90
2018-12-10T21:30:37.828Z,66.80
2018-12-10T21:33:05.301Z,66.80
2018-12-10T21:35:32.781Z,66.90
2018-12-10T21:38:00.342Z,66.80
2018-12-10T21:40:27.820Z,67.00
2018-12-10T21:42:55.400Z,66.50
2018-12-10T21:45:22.866Z,66.40
2018-12-10T21:47:51.355Z,66.50
2018-12-10T21:50:18.831Z,66.40
2018-12-10T21:52:46.325Z,66.20
2018-12-10T21:55:19.069Z,66.50
2018-12-10T21:57:46.578Z,66.60
2018-12-10T22:00:14.066Z,66.80
2018-12-10T22:02:41.560Z,66.80
2018-12-10T22:05:12.302Z,67.00
2018-12-10T22:07:39.796Z,67.00
2018-12-10T22:10:07.345Z,67.10
2018-12-10T22:12:34.826Z,66.90
2018-12-10T22:15:02.339Z,67.00
2018-12-10T22:17:29.825Z,67.00
2018-12-10T22:19:57.315Z,67.10
2018-12-10T22:22:24.801Z,67.40
2018-12-10T22:24:52.315Z,67.50
2018-12-10T22:27:19.803Z,67.70
2018-12-10T22:29:48.324Z,67.90
2018-12-10T22:32:15.797Z,68.00
2018-12-10T22:34:43.299Z,68.00
2018-12-10T22:37:10.762Z,68.30
2018-12-10T22:39:38.250Z,68.30
2018-12-10T22:42:05.742Z,68.60
2018-12-10T22:44:33.324Z,68.70
2018-12-10T22:47:00.809Z,68.80
2018-12-10T22:49:28.286Z,69.10
2018-12-10T22:51:55.783Z,69.00
2018-12-10T22:54:23.267Z,69.10
2018-12-10T22:56:50.773Z,69.30
2018-12-10T22:59:18.323Z,69.20
2018-12-10T23:01:45.823Z,69.10
2018-12-10T23:04:13.318Z,68.30
2018-12-10T23:06:40.795Z,68.90
2018-12-10T23:09:08.276Z,69.10
2018-12-10T23:11:35.745Z,69.30
2018-12-10T23:14:03.231Z,69.10
2018-12-10T23:16:30.722Z,69.20
2018-12-10T23:18:58.202Z,69.20
2018-12-10T23:21:25.693Z,69.10
2018-12-10T23:23:53.171Z,69.30
2018-12-10T23:26:20.648Z,69.30
2018-12-10T23:28:48.130Z,69.10
2018-12-10T23:31:15.618Z,68.80
2018-12-10T23:33:43.105Z,68.70
2018-12-10T23:36:10.585Z,68.20
2018-12-10T23:38:38.093Z,67.90
2018-12-10T23:41:05.609Z,67.70
2018-12-10T23:43:33.776Z,67.70
2018-12-10T23:46:01.472Z,67.50
2018-12-10T23:48:28.962Z,68.00
2018-12-10T23:50:56.454Z,67.30
2018-12-10T23:53:23.930Z,67.30
2018-12-10T23:55:51.419Z,67.60
2018-12-10T23:58:18.892Z,67.50
